TimeHST,TemperatureF,Dew PointF,Humidity,Sea Level PressureIn,VisibilityMPH,Wind Direction,Wind SpeedMPH,Gust SpeedMPH,PrecipitationIn,Events,Conditions,WindDirDegrees,DateUTC
12:53 AM,70.0,64.9,84,29.96,10.0,SW,5.8,-,N/A,,Mostly Cloudy,220,2012-12-07 10:53:00
1:53 AM,69.1,63.0,81,29.95,10.0,SW,4.6,-,N/A,,Partly Cloudy,230,2012-12-07 11:53:00
2:53 AM,66.9,60.1,79,29.95,10.0,WSW,9.2,-,N/A,,Scattered Clouds,240,2012-12-07 12:53:00
3:53 AM,66.0,60.1,81,29.95,10.0,WSW,5.8,-,N/A,,Clear,240,2012-12-07 13:53:00
4:53 AM,66.0,60.1,81,29.94,10.0,WSW,6.9,-,N/A,,Partly Cloudy,240,2012-12-07 14:53:00
5:53 AM,66.9,60.1,79,29.96,10.0,SW,5.8,-,N/A,,Scattered Clouds,230,2012-12-07 15:53:00
6:53 AM,66.9,59.0,76,29.98,10.0,WSW,6.9,-,N/A,,Mostly Cloudy,240,2012-12-07 16:53:00
7:53 AM,71.1,60.1,68,29.99,10.0,WSW,5.8,-,N/A,,Mostly Cloudy,240,2012-12-07 17:53:00
8:53 AM,78.1,64.0,62,30.01,10.0,SW,5.8,-,N/A,,Scattered Clouds,220,2012-12-07 18:53:00
9:53 AM,79.0,64.9,62,30.00,10.0,Variable,3.5,-,N/A,,Scattered Clouds,0,2012-12-07 19:53:00
10:53 AM,80.1,64.0,58,30.00,10.0,ENE,6.9,-,N/A,,Scattered Clouds,70,2012-12-07 20:53:00
11:53 AM,82.0,63.0,52,29.97,10.0,ENE,6.9,-,N/A,,Partly Cloudy,60,2012-12-07 21:53:00
12:53 PM,81.0,64.0,56,29.95,10.0,NNE,11.5,-,N/A,,Scattered Clouds,30,2012-12-07 22:53:00
1:53 PM,81.0,64.9,58,29.93,10.0,NE,8.1,-,N/A,,Mostly Cloudy,40,2012-12-07 23:53:00
2:53 PM,79.0,66.0,64,29.93,10.0,Variable,5.8,-,N/A,,Mostly Cloudy,0,2012-12-08 00:53:00
3:53 PM,77.0,64.0,64,29.93,10.0,NNE,5.8,-,N/A,,Mostly Cloudy,30,2012-12-08 01:53:00
4:53 PM,75.9,64.9,69,29.93,10.0,NE,3.5,-,N/A,,Overcast,50,2012-12-08 02:53:00
5:08 PM,75.2,64.4,69,29.94,10.0,NE,3.5,-,N/A,,Overcast,50,2012-12-08 03:08:00
5:15 PM,75.2,64.4,69,29.94,10.0,NE,3.5,-,N/A,,Overcast,40,2012-12-08 03:15:00
5:53 PM,75.9,64.9,69,29.94,10.0,Calm,Calm,-,N/A,,Overcast,0,2012-12-08 03:53:00
6:37 PM,75.2,66.2,73,29.95,10.0,Calm,Calm,-,0.00,Rain,Light Rain,0,2012-12-08 04:37:00
6:53 PM,73.9,66.9,79,29.96,10.0,Calm,Calm,-,0.00,,Overcast,0,2012-12-08 04:53:00
7:00 PM,73.4,66.2,78,29.96,10.0,Calm,Calm,-,N/A,,Overcast,0,2012-12-08 05:00:00
7:53 PM,71.1,66.0,84,29.96,10.0,Calm,Calm,-,N/A,,Clear,0,2012-12-08 05:53:00
8:53 PM,70.0,64.9,84,29.97,10.0,WSW,4.6,-,N/A,,Mostly Cloudy,240,2012-12-08 06:53:00
9:46 PM,69.8,64.4,83,29.98,10.0,WSW,5.8,-,N/A,,Overcast,240,2012-12-08 07:46:00
9:53 PM,69.1,64.0,84,29.98,10.0,SW,6.9,-,N/A,,Mostly Cloudy,230,2012-12-08 07:53:00
10:15 PM,69.8,62.6,78,29.98,10.0,SW,5.8,-,N/A,,Mostly Cloudy,230,2012-12-08 08:15:00
10:53 PM,69.1,62.1,78,29.97,10.0,SW,6.9,-,N/A,,Mostly Cloudy,230,2012-12-08 08:53:00
11:53 PM,69.1,61.0,75,29.96,10.0,WSW,8.1,-,N/A,,Mostly Cloudy,240,2012-12-08 09:53:00